sensor_id;sensor_type;location;lat;lon;timestamp;temperature;humidity
19340;HTU21D;9804;52.350;6.684;2023-03-24T00:02:23;14.13;-6.00
19340;HTU21D;9804;52.350;6.684;2023-03-24T00:04:49;14.06;-6.00
19340;HTU21D;9804;52.350;6.684;2023-03-24T00:07:16;14.08;-6.00
19340;HTU21D;9804;52.350;6.684;2023-03-24T00:09:44;14.10;-6.00
19340;HTU21D;9804;52.350;6.684;2023-03-24T00:12:12;13.97;-6.00
19340;HTU21D;9804;52.350;6.684;2023-03-24T00:14:39;14.01;-6.00
19340;HTU21D;9804;52.350;6.684;2023-03-24T00:17:06;14.05;-6.00
19340;HTU21D;9804;52.350;6.684;2023-03-24T00:19:34;14.09;-6.00
19340;HTU21D;9804;52.350;6.684;2023-03-24T00:22:06;14.11;-6.00
19340;HTU21D;9804;52.350;6.684;2023-03-24T00:24:32;14.27;-6.00
19340;HTU21D;9804;52.350;6.684;2023-03-24T00:26:59;14.22;-6.00
19340;HTU21D;9804;52.350;6.684;2023-03-24T00:29:25;14.03;-6.00
19340;HTU21D;9804;52.350;6.684;2023-03-24T00:31:51;14.11;-6.00
19340;HTU21D;9804;52.350;6.684;2023-03-24T00:34:18;14.15;-6.00
19340;HTU21D;9804;52.350;6.684;2023-03-24T00:36:48;14.09;-6.00
19340;HTU21D;9804;52.350;6.684;2023-03-24T00:39:14;14.22;-6.00
19340;HTU21D;9804;52.350;6.684;2023-03-24T00:41:42;14.12;-6.00
19340;HTU21D;9804;52.350;6.684;2023-03-24T00:44:09;14.13;-6.00
19340;HTU21D;9804;52.350;6.684;2023-03-24T00:46:46;14.22;-6.00
19340;HTU21D;9804;52.350;6.684;2023-03-24T00:49:20;14.15;-6.00
19340;HTU21D;9804;52.350;6.684;2023-03-24T00:52:09;14.11;-6.00
19340;HTU21D;9804;52.350;6.684;2023-03-24T00:54:36;14.08;-6.00
19340;HTU21D;9804;52.350;6.684;2023-03-24T00:57:02;14.33;-6.00
19340;HTU21D;9804;52.350;6.684;2023-03-24T00:59:29;14.10;-6.00
19340;HTU21D;9804;52.350;6.684;2023-03-24T01:01:54;14.34;-6.00
19340;HTU21D;9804;52.350;6.684;2023-03-24T01:04:21;14.15;-6.00
19340;HTU21D;9804;52.350;6.684;2023-03-24T01:06:51;14.17;-6.00
19340;HTU21D;9804;52.350;6.684;2023-03-24T01:09:17;14.27;-6.00
19340;HTU21D;9804;52.350;6.684;2023-03-24T01:11:45;14.27;-6.00
19340;HTU21D;9804;52.350;6.684;2023-03-24T01:14:11;14.29;-6.00
19340;HTU21D;9804;52.350;6.684;2023-03-24T01:16:36;14.29;-6.00
19340;HTU21D;9804;52.350;6.684;2023-03-24T01:19:02;14.21;-6.00
19340;HTU21D;9804;52.350;6.684;2023-03-24T01:21:28;14.26;-6.00
19340;HTU21D;9804;52.350;6.684;2023-03-24T01:23:53;14.10;-6.00
19340;HTU21D;9804;52.350;6.684;2023-03-24T01:26:19;14.26;-6.00
19340;HTU21D;9804;52.350;6.684;2023-03-24T01:28:44;14.24;-6.00
19340;HTU21D;9804;52.350;6.684;2023-03-24T01:31:10;14.33;-6.00
19340;HTU21D;9804;52.350;6.684;2023-03-24T01:33:36;14.34;-6.00
19340;HTU21D;9804;52.350;6.684;2023-03-24T01:36:04;14.17;-6.00
19340;HTU21D;9804;52.350;6.684;2023-03-24T01:38:29;14.22;-6.00
19340;HTU21D;9804;52.350;6.684;2023-03-24T01:40:55;14.23;-6.00
19340;HTU21D;9804;52.350;6.684;2023-03-24T01:43:23;14.20;-6.00
19340;HTU21D;9804;52.350;6.684;2023-03-24T01:48:41;14.37;-6.00
19340;HTU21D;9804;52.350;6.684;2023-03-24T01:54:15;14.34;-6.00
19340;HTU21D;9804;52.350;6.684;2023-03-24T01:56:46;14.25;-6.00
19340;HTU21D;9804;52.350;6.684;2023-03-24T01:59:24;14.17;-6.00
19340;HTU21D;9804;52.350;6.684;2023-03-24T02:01:51;14.40;-6.00
19340;HTU21D;9804;52.350;6.684;2023-03-24T02:04:28;14.35;-6.00
19340;HTU21D;9804;52.350;6.684;2023-03-24T02:06:54;14.24;-6.00
19340;HTU21D;9804;52.350;6.684;2023-03-24T02:09:21;14.32;-6.00
19340;HTU21D;9804;52.350;6.684;2023-03-24T02:11:46;14.51;-6.00
19340;HTU21D;9804;52.350;6.684;2023-03-24T02:14:12;14.42;-6.00
19340;HTU21D;9804;52.350;6.684;2023-03-24T02:22:19;14.50;-6.00
19340;HTU21D;9804;52.350;6.684;2023-03-24T02:39:52;14.52;-6.00
19340;HTU21D;9804;52.350;6.684;2023-03-24T02:42:24;14.59;-6.00
19340;HTU21D;9804;52.350;6.684;2023-03-24T02:45:11;14.56;-6.00
19340;HTU21D;9804;52.350;6.684;2023-03-24T02:57:04;14.45;-6.00
19340;HTU21D;9804;52.350;6.684;2023-03-24T02:59:45;14.35;-6.00
19340;HTU21D;9804;52.350;6.684;2023-03-24T03:02:19;14.59;-6.00
19340;HTU21D;9804;52.350;6.684;2023-03-24T03:04:52;14.51;-6.00
19340;HTU21D;9804;52.350;6.684;2023-03-24T03:07:22;14.54;-6.00
19340;HTU21D;9804;52.350;6.684;2023-03-24T03:12:30;14.58;-6.00
19340;HTU21D;9804;52.350;6.684;2023-03-24T03:15:10;14.56;-6.00
19340;HTU21D;9804;52.350;6.684;2023-03-24T03:17:50;14.45;-6.00
19340;HTU21D;9804;52.350;6.684;2023-03-24T03:20:20;14.63;-6.00
19340;HTU21D;9804;52.350;6.684;2023-03-24T03:22:55;14.50;-6.00
19340;HTU21D;9804;52.350;6.684;2023-03-24T03:25:26;14.52;-6.00
19340;HTU21D;9804;52.350;6.684;2023-03-24T03:27:54;14.60;-6.00
19340;HTU21D;9804;52.350;6.684;2023-03-24T03:30:29;14.53;-6.00
19340;HTU21D;9804;52.350;6.684;2023-03-24T03:33:02;14.52;-6.00
19340;HTU21D;9804;52.350;6.684;2023-03-24T03:35:34;14.45;-6.00
19340;HTU21D;9804;52.350;6.684;2023-03-24T03:38:18;14.45;-6.00
19340;HTU21D;9804;52.350;6.684;2023-03-24T03:40:51;14.68;-6.00
19340;HTU21D;9804;52.350;6.684;2023-03-24T03:43:18;14.54;-6.00
19340;HTU21D;9804;52.350;6.684;2023-03-24T03:45:44;14.45;-6.00
19340;HTU21D;9804;52.350;6.684;2023-03-24T03:48:09;14.50;-6.00
19340;HTU21D;9804;52.350;6.684;2023-03-24T03:50:35;14.58;-6.00
19340;HTU21D;9804;52.350;6.684;2023-03-24T03:53:02;14.23;-6.00
19340;HTU21D;9804;52.350;6.684;2023-03-24T03:55:27;14.21;-6.00
19340;HTU21D;9804;52.350;6.684;2023-03-24T03:57:53;14.37;-6.00
19340;HTU21D;9804;52.350;6.684;2023-03-24T04:00:19;14.33;-6.00
19340;HTU21D;9804;52.350;6.684;2023-03-24T04:05:52;14.32;-6.00
19340;HTU21D;9804;52.350;6.684;2023-03-24T04:08:32;14.14;-6.00
19340;HTU21D;9804;52.350;6.684;2023-03-24T04:14:10;14.13;-6.00
19340;HTU21D;9804;52.350;6.684;2023-03-24T04:20:09;13.98;-6.00
19340;HTU21D;9804;52.350;6.684;2023-03-24T04:26:03;13.77;-6.00
19340;HTU21D;9804;52.350;6.684;2023-03-24T04:28:38;13.79;-6.00
19340;HTU21D;9804;52.350;6.684;2023-03-24T04:31:15;13.70;-6.00
19340;HTU21D;9804;52.350;6.684;2023-03-24T04:33:50;13.64;-6.00
19340;HTU21D;9804;52.350;6.684;2023-03-24T04:36:22;13.67;-6.00
19340;HTU21D;9804;52.350;6.684;2023-03-24T04:38:51;13.49;-6.00
19340;HTU21D;9804;52.350;6.684;2023-03-24T04:41:20;13.37;-6.00
19340;HTU21D;9804;52.350;6.684;2023-03-24T04:43:47;13.51;-6.00
19340;HTU21D;9804;52.350;6.684;2023-03-24T04:46:13;13.46;-6.00
19340;HTU21D;9804;52.350;6.684;2023-03-24T04:48:45;13.32;-6.00
19340;HTU21D;9804;52.350;6.684;2023-03-24T04:51:14;13.30;-6.00
19340;HTU21D;9804;52.350;6.684;2023-03-24T04:53:40;13.31;-6.00
19340;HTU21D;9804;52.350;6.684;2023-03-24T04:56:36;13.12;-6.00
19340;HTU21D;9804;52.350;6.684;2023-03-24T04:59:02;13.19;-6.00
19340;HTU21D;9804;52.350;6.684;2023-03-24T05:01:28;13.18;-6.00
19340;HTU21D;9804;52.350;6.684;2023-03-24T05:03:56;13.05;-6.00
19340;HTU21D;9804;52.350;6.684;2023-03-24T05:06:21;13.25;-6.00
19340;HTU21D;9804;52.350;6.684;2023-03-24T05:08:47;13.09;-6.00
19340;HTU21D;9804;52.350;6.684;2023-03-24T05:11:13;13.19;-6.00
19340;HTU21D;9804;52.350;6.684;2023-03-24T05:13:38;13.07;-6.00
19340;HTU21D;9804;52.350;6.684;2023-03-24T05:16:04;12.91;-6.00
19340;HTU21D;9804;52.350;6.684;2023-03-24T05:18:29;13.07;-6.00
19340;HTU21D;9804;52.350;6.684;2023-03-24T05:20:55;13.10;-6.00
19340;HTU21D;9804;52.350;6.684;2023-03-24T05:23:20;12.93;-6.00
19340;HTU21D;9804;52.350;6.684;2023-03-24T05:25:46;12.96;-6.00
19340;HTU21D;9804;52.350;6.684;2023-03-24T05:28:12;12.99;-6.00
19340;HTU21D;9804;52.350;6.684;2023-03-24T05:30:37;12.90;-6.00
19340;HTU21D;9804;52.350;6.684;2023-03-24T05:33:03;12.91;-6.00
19340;HTU21D;9804;52.350;6.684;2023-03-24T05:35:28;13.03;-6.00
19340;HTU21D;9804;52.350;6.684;2023-03-24T05:37:54;13.01;-6.00
19340;HTU21D;9804;52.350;6.684;2023-03-24T05:40:20;12.86;-6.00
19340;HTU21D;9804;52.350;6.684;2023-03-24T05:42:48;13.17;-6.00
19340;HTU21D;9804;52.350;6.684;2023-03-24T05:45:14;13.10;-6.00
19340;HTU21D;9804;52.350;6.684;2023-03-24T05:47:40;13.25;-6.00
19340;HTU21D;9804;52.350;6.684;2023-03-24T05:50:05;13.22;-6.00
19340;HTU21D;9804;52.350;6.684;2023-03-24T05:52:31;13.17;-6.00
19340;HTU21D;9804;52.350;6.684;2023-03-24T05:54:57;12.97;-6.00
19340;HTU21D;9804;52.350;6.684;2023-03-24T05:57:23;12.96;-6.00
19340;HTU21D;9804;52.350;6.684;2023-03-24T05:59:48;12.94;-6.00
19340;HTU21D;9804;52.350;6.684;2023-03-24T06:02:13;13.01;-6.00
19340;HTU21D;9804;52.350;6.684;2023-03-24T06:04:39;12.99;-6.00
19340;HTU21D;9804;52.350;6.684;2023-03-24T06:07:10;12.86;-6.00
19340;HTU21D;9804;52.350;6.684;2023-03-24T06:09:35;12.85;-6.00
19340;HTU21D;9804;52.350;6.684;2023-03-24T06:12:02;12.89;-6.00
19340;HTU21D;9804;52.350;6.684;2023-03-24T06:14:28;12.95;-6.00
19340;HTU21D;9804;52.350;6.684;2023-03-24T06:16:54;13.06;-6.00
19340;HTU21D;9804;52.350;6.684;2023-03-24T06:19:24;12.81;-6.00
19340;HTU21D;9804;52.350;6.684;2023-03-24T06:21:50;12.64;-6.00
19340;HTU21D;9804;52.350;6.684;2023-03-24T06:24:16;12.77;-6.00
19340;HTU21D;9804;52.350;6.684;2023-03-24T06:26:43;12.76;-6.00
19340;HTU21D;9804;52.350;6.684;2023-03-24T06:29:15;12.76;-6.00
19340;HTU21D;9804;52.350;6.684;2023-03-24T06:31:42;12.78;-6.00
19340;HTU21D;9804;52.350;6.684;2023-03-24T06:34:08;12.78;-6.00
19340;HTU21D;9804;52.350;6.684;2023-03-24T06:36:33;12.85;-6.00
19340;HTU21D;9804;52.350;6.684;2023-03-24T06:39:00;12.94;-6.00
19340;HTU21D;9804;52.350;6.684;2023-03-24T06:41:26;12.91;-6.00
19340;HTU21D;9804;52.350;6.684;2023-03-24T06:43:51;12.74;-6.00
19340;HTU21D;9804;52.350;6.684;2023-03-24T06:46:17;12.76;-6.00
19340;HTU21D;9804;52.350;6.684;2023-03-24T06:48:42;12.87;-6.00
19340;HTU21D;9804;52.350;6.684;2023-03-24T06:51:08;12.96;-6.00
19340;HTU21D;9804;52.350;6.684;2023-03-24T06:53:34;13.01;-6.00
19340;HTU21D;9804;52.350;6.684;2023-03-24T06:56:00;13.08;-6.00
19340;HTU21D;9804;52.350;6.684;2023-03-24T06:58:25;12.97;-6.00
19340;HTU21D;9804;52.350;6.684;2023-03-24T07:00:50;13.05;-6.00
19340;HTU21D;9804;52.350;6.684;2023-03-24T07:03:16;13.03;-6.00
19340;HTU21D;9804;52.350;6.684;2023-03-24T07:05:43;12.96;-6.00
19340;HTU21D;9804;52.350;6.684;2023-03-24T07:08:10;13.17;-6.00
19340;HTU21D;9804;52.350;6.684;2023-03-24T07:10:37;13.15;-6.00
19340;HTU21D;9804;52.350;6.684;2023-03-24T07:13:04;12.95;-6.00
19340;HTU21D;9804;52.350;6.684;2023-03-24T07:15:30;12.99;-6.00
19340;HTU21D;9804;52.350;6.684;2023-03-24T07:17:56;13.06;-6.00
19340;HTU21D;9804;52.350;6.684;2023-03-24T07:20:21;13.29;-6.00
19340;HTU21D;9804;52.350;6.684;2023-03-24T07:22:47;13.38;-6.00
19340;HTU21D;9804;52.350;6.684;2023-03-24T07:25:12;13.48;-6.00
19340;HTU21D;9804;52.350;6.684;2023-03-24T07:27:39;13.61;-6.00
19340;HTU21D;9804;52.350;6.684;2023-03-24T07:30:05;13.52;-6.00
19340;HTU21D;9804;52.350;6.684;2023-03-24T07:32:31;13.35;-6.00
19340;HTU21D;9804;52.350;6.684;2023-03-24T07:34:59;13.31;-6.00
19340;HTU21D;9804;52.350;6.684;2023-03-24T07:37:25;13.38;-6.00
19340;HTU21D;9804;52.350;6.684;2023-03-24T07:39:51;13.34;-6.00
19340;HTU21D;9804;52.350;6.684;2023-03-24T07:42:16;13.52;-6.00
19340;HTU21D;9804;52.350;6.684;2023-03-24T07:44:41;13.76;-6.00
19340;HTU21D;9804;52.350;6.684;2023-03-24T07:47:07;13.47;-6.00
19340;HTU21D;9804;52.350;6.684;2023-03-24T07:49:33;13.70;-6.00
19340;HTU21D;9804;52.350;6.684;2023-03-24T07:51:58;13.51;-6.00
19340;HTU21D;9804;52.350;6.684;2023-03-24T07:54:24;13.47;-6.00
19340;HTU21D;9804;52.350;6.684;2023-03-24T07:56:49;13.54;-6.00
19340;HTU21D;9804;52.350;6.684;2023-03-24T07:59:15;13.75;-6.00
19340;HTU21D;9804;52.350;6.684;2023-03-24T08:01:41;13.64;-6.00
19340;HTU21D;9804;52.350;6.684;2023-03-24T08:04:10;13.96;-6.00
19340;HTU21D;9804;52.350;6.684;2023-03-24T08:06:36;13.94;-6.00
19340;HTU21D;9804;52.350;6.684;2023-03-24T08:09:01;13.98;-6.00
19340;HTU21D;9804;52.350;6.684;2023-03-24T08:11:27;14.17;-6.00
19340;HTU21D;9804;52.350;6.684;2023-03-24T08:13:52;14.23;-6.00
19340;HTU21D;9804;52.350;6.684;2023-03-24T08:16:18;14.40;-6.00
19340;HTU21D;9804;52.350;6.684;2023-03-24T08:18:43;14.30;-6.00
19340;HTU21D;9804;52.350;6.684;2023-03-24T08:21:08;14.33;-6.00
19340;HTU21D;9804;52.350;6.684;2023-03-24T08:23:34;14.49;-6.00
19340;HTU21D;9804;52.350;6.684;2023-03-24T08:26:01;14.51;-6.00
19340;HTU21D;9804;52.350;6.684;2023-03-24T08:28:26;14.49;-6.00
19340;HTU21D;9804;52.350;6.684;2023-03-24T08:30:52;14.58;-6.00
19340;HTU21D;9804;52.350;6.684;2023-03-24T08:33:17;14.49;-6.00
19340;HTU21D;9804;52.350;6.684;2023-03-24T08:35:43;14.54;-6.00
19340;HTU21D;9804;52.350;6.684;2023-03-24T08:38:12;14.57;-6.00
19340;HTU21D;9804;52.350;6.684;2023-03-24T08:40:40;14.72;-6.00
19340;HTU21D;9804;52.350;6.684;2023-03-24T08:43:07;14.62;-6.00
19340;HTU21D;9804;52.350;6.684;2023-03-24T08:45:33;14.17;-6.00
19340;HTU21D;9804;52.350;6.684;2023-03-24T08:48:01;14.59;-6.00
19340;HTU21D;9804;52.350;6.684;2023-03-24T08:50:30;14.52;-6.00
19340;HTU21D;9804;52.350;6.684;2023-03-24T08:52:56;14.70;-6.00
19340;HTU21D;9804;52.350;6.684;2023-03-24T08:55:23;14.69;-6.00
19340;HTU21D;9804;52.350;6.684;2023-03-24T08:57:49;14.66;-6.00
19340;HTU21D;9804;52.350;6.684;2023-03-24T09:00:16;14.70;-6.00
19340;HTU21D;9804;52.350;6.684;2023-03-24T09:02:48;14.74;-6.00
19340;HTU21D;9804;52.350;6.684;2023-03-24T09:05:15;15.14;-6.00
19340;HTU21D;9804;52.350;6.684;2023-03-24T09:07:43;14.68;-6.00
19340;HTU21D;9804;52.350;6.684;2023-03-24T09:10:09;15.14;-6.00
19340;HTU21D;9804;52.350;6.684;2023-03-24T09:12:36;15.08;-6.00
19340;HTU21D;9804;52.350;6.684;2023-03-24T09:15:03;15.43;-6.00
19340;HTU21D;9804;52.350;6.684;2023-03-24T09:17:28;15.10;-6.00
19340;HTU21D;9804;52.350;6.684;2023-03-24T09:19:54;15.29;-6.00
19340;HTU21D;9804;52.350;6.684;2023-03-24T09:22:20;15.01;-6.00
19340;HTU21D;9804;52.350;6.684;2023-03-24T09:24:46;14.83;-6.00
19340;HTU21D;9804;52.350;6.684;2023-03-24T09:27:14;15.03;-6.00
19340;HTU21D;9804;52.350;6.684;2023-03-24T09:29:40;14.85;-6.00
19340;HTU21D;9804;52.350;6.684;2023-03-24T09:32:05;15.21;-6.00
19340;HTU21D;9804;52.350;6.684;2023-03-24T09:34:31;15.04;-6.00
19340;HTU21D;9804;52.350;6.684;2023-03-24T09:36:58;15.24;-6.00
19340;HTU21D;9804;52.350;6.684;2023-03-24T09:39:23;15.09;-6.00
19340;HTU21D;9804;52.350;6.684;2023-03-24T09:41:49;15.44;-6.00
19340;HTU21D;9804;52.350;6.684;2023-03-24T09:44:27;15.29;-6.00
19340;HTU21D;9804;52.350;6.684;2023-03-24T09:46:59;15.30;-6.00
19340;HTU21D;9804;52.350;6.684;2023-03-24T09:49:32;15.53;-6.00
19340;HTU21D;9804;52.350;6.684;2023-03-24T09:52:05;15.59;-6.00
19340;HTU21D;9804;52.350;6.684;2023-03-24T09:54:41;15.27;-6.00
19340;HTU21D;9804;52.350;6.684;2023-03-24T09:57:28;15.63;-6.00
19340;HTU21D;9804;52.350;6.684;2023-03-24T09:59:55;15.81;-6.00
19340;HTU21D;9804;52.350;6.684;2023-03-24T10:02:21;15.98;-6.00
19340;HTU21D;9804;52.350;6.684;2023-03-24T10:04:48;15.37;-6.00
19340;HTU21D;9804;52.350;6.684;2023-03-24T10:07:55;15.72;-6.00
19340;HTU21D;9804;52.350;6.684;2023-03-24T10:11:02;15.69;-6.00
19340;HTU21D;9804;52.350;6.684;2023-03-24T10:13:20;15.02;-6.00
19340;HTU21D;9804;52.350;6.684;2023-03-24T10:16:00;15.03;-6.00
19340;HTU21D;9804;52.350;6.684;2023-03-24T10:18:58;14.94;-6.00
19340;HTU21D;9804;52.350;6.684;2023-03-24T10:21:30;14.88;-6.00
19340;HTU21D;9804;52.350;6.684;2023-03-24T10:24:23;15.08;-6.00
19340;HTU21D;9804;52.350;6.684;2023-03-24T10:29:29;15.08;-6.00
19340;HTU21D;9804;52.350;6.684;2023-03-24T10:32:18;14.89;-6.00
19340;HTU21D;9804;52.350;6.684;2023-03-24T10:34:48;15.54;-6.00
19340;HTU21D;9804;52.350;6.684;2023-03-24T10:37:15;15.61;-6.00
19340;HTU21D;9804;52.350;6.684;2023-03-24T10:39:41;16.15;-6.00
19340;HTU21D;9804;52.350;6.684;2023-03-24T10:42:32;16.74;-6.00
19340;HTU21D;9804;52.350;6.684;2023-03-24T10:44:56;16.32;-6.00
19340;HTU21D;9804;52.350;6.684;2023-03-24T10:47:27;16.25;-6.00
19340;HTU21D;9804;52.350;6.684;2023-03-24T10:49:57;16.69;-6.00
19340;HTU21D;9804;52.350;6.684;2023-03-24T10:52:25;17.22;-6.00
19340;HTU21D;9804;52.350;6.684;2023-03-24T10:55:01;17.19;-6.00
19340;HTU21D;9804;52.350;6.684;2023-03-24T10:57:27;17.31;-6.00
19340;HTU21D;9804;52.350;6.684;2023-03-24T11:00:06;17.07;-6.00
19340;HTU21D;9804;52.350;6.684;2023-03-24T11:02:35;17.18;-6.00
19340;HTU21D;9804;52.350;6.684;2023-03-24T11:05:19;16.96;-6.00
19340;HTU21D;9804;52.350;6.684;2023-03-24T11:07:49;17.34;-6.00
19340;HTU21D;9804;52.350;6.684;2023-03-24T11:10:17;16.85;-6.00
19340;HTU21D;9804;52.350;6.684;2023-03-24T11:12:59;17.01;-6.00
19340;HTU21D;9804;52.350;6.684;2023-03-24T11:15:31;16.95;-6.00
19340;HTU21D;9804;52.350;6.684;2023-03-24T11:18:00;16.95;-6.00
19340;HTU21D;9804;52.350;6.684;2023-03-24T11:23:01;16.36;-6.00
19340;HTU21D;9804;52.350;6.684;2023-03-24T11:25:28;16.28;-6.00
19340;HTU21D;9804;52.350;6.684;2023-03-24T11:27:58;16.58;-6.00
19340;HTU21D;9804;52.350;6.684;2023-03-24T11:30:28;16.85;-6.00
19340;HTU21D;9804;52.350;6.684;2023-03-24T11:32:55;16.78;-6.00
19340;HTU21D;9804;52.350;6.684;2023-03-24T11:35:22;16.65;-6.00
19340;HTU21D;9804;52.350;6.684;2023-03-24T11:37:48;17.01;-6.00
19340;HTU21D;9804;52.350;6.684;2023-03-24T11:40:16;16.66;-6.00
19340;HTU21D;9804;52.350;6.684;2023-03-24T11:42:59;16.27;-6.00
19340;HTU21D;9804;52.350;6.684;2023-03-24T11:48:08;17.09;-6.00
19340;HTU21D;9804;52.350;6.684;2023-03-24T11:50:37;16.92;-6.00
19340;HTU21D;9804;52.350;6.684;2023-03-24T11:53:17;17.23;-6.00
19340;HTU21D;9804;52.350;6.684;2023-03-24T11:56:36;17.03;-6.00
19340;HTU21D;9804;52.350;6.684;2023-03-24T11:58:49;16.99;-6.00
19340;HTU21D;9804;52.350;6.684;2023-03-24T12:03:58;17.58;-6.00
19340;HTU21D;9804;52.350;6.684;2023-03-24T12:09:27;17.48;-6.00
19340;HTU21D;9804;52.350;6.684;2023-03-24T12:17:23;17.02;-6.00
19340;HTU21D;9804;52.350;6.684;2023-03-24T12:20:06;16.82;-6.00
19340;HTU21D;9804;52.350;6.684;2023-03-24T12:23:06;16.84;-6.00
19340;HTU21D;9804;52.350;6.684;2023-03-24T12:25:44;15.99;-6.00
19340;HTU21D;9804;52.350;6.684;2023-03-24T12:37:03;13.73;-6.00
19340;HTU21D;9804;52.350;6.684;2023-03-24T12:39:33;13.84;-6.00
19340;HTU21D;9804;52.350;6.684;2023-03-24T12:42:13;13.64;-6.00
19340;HTU21D;9804;52.350;6.684;2023-03-24T12:44:56;14.05;-6.00
19340;HTU21D;9804;52.350;6.684;2023-03-24T12:48:03;14.07;-6.00
19340;HTU21D;9804;52.350;6.684;2023-03-24T12:51:02;13.99;-6.00
19340;HTU21D;9804;52.350;6.684;2023-03-24T12:53:43;13.92;-6.00
19340;HTU21D;9804;52.350;6.684;2023-03-24T12:56:23;14.20;-6.00
19340;HTU21D;9804;52.350;6.684;2023-03-24T12:59:17;14.03;-6.00
19340;HTU21D;9804;52.350;6.684;2023-03-24T13:01:47;14.07;-6.00
19340;HTU21D;9804;52.350;6.684;2023-03-24T13:04:19;14.07;-6.00
19340;HTU21D;9804;52.350;6.684;2023-03-24T13:06:56;14.64;-6.00
19340;HTU21D;9804;52.350;6.684;2023-03-24T13:12:19;14.47;-6.00
19340;HTU21D;9804;52.350;6.684;2023-03-24T13:14:54;14.95;-6.00
19340;HTU21D;9804;52.350;6.684;2023-03-24T13:17:26;14.93;-6.00
19340;HTU21D;9804;52.350;6.684;2023-03-24T13:19:54;15.03;-6.00
19340;HTU21D;9804;52.350;6.684;2023-03-24T13:22:21;14.89;-6.00
19340;HTU21D;9804;52.350;6.684;2023-03-24T13:24:49;14.87;-6.00
19340;HTU21D;9804;52.350;6.684;2023-03-24T13:27:20;14.87;-6.00
19340;HTU21D;9804;52.350;6.684;2023-03-24T13:32:30;14.71;-6.00
19340;HTU21D;9804;52.350;6.684;2023-03-24T13:38:00;14.81;-6.00
19340;HTU21D;9804;52.350;6.684;2023-03-24T13:40:29;14.87;-6.00
19340;HTU21D;9804;52.350;6.684;2023-03-24T13:43:06;14.77;-6.00
19340;HTU21D;9804;52.350;6.684;2023-03-24T13:45:58;15.01;-6.00
19340;HTU21D;9804;52.350;6.684;2023-03-24T13:48:35;14.94;-6.00
19340;HTU21D;9804;52.350;6.684;2023-03-24T13:51:31;14.77;-6.00
19340;HTU21D;9804;52.350;6.684;2023-03-24T13:54:14;14.83;-6.00
19340;HTU21D;9804;52.350;6.684;2023-03-24T13:56:48;14.73;-6.00
19340;HTU21D;9804;52.350;6.684;2023-03-24T13:59:24;14.55;-6.00
19340;HTU21D;9804;52.350;6.684;2023-03-24T14:05:00;14.68;-6.00
19340;HTU21D;9804;52.350;6.684;2023-03-24T14:15:31;14.84;-6.00
19340;HTU21D;9804;52.350;6.684;2023-03-24T14:23:37;14.84;-6.00
19340;HTU21D;9804;52.350;6.684;2023-03-24T14:26:07;14.71;-6.00
19340;HTU21D;9804;52.350;6.684;2023-03-24T14:28:38;14.62;-6.00
19340;HTU21D;9804;52.350;6.684;2023-03-24T14:39:41;14.58;-6.00
19340;HTU21D;9804;52.350;6.684;2023-03-24T14:41:41;14.43;-6.00
19340;HTU21D;9804;52.350;6.684;2023-03-24T14:44:08;14.09;-6.00
19340;HTU21D;9804;52.350;6.684;2023-03-24T14:49:28;13.74;-6.00
19340;HTU21D;9804;52.350;6.684;2023-03-24T14:52:17;13.79;-6.00
19340;HTU21D;9804;52.350;6.684;2023-03-24T14:57:41;14.04;-6.00
19340;HTU21D;9804;52.350;6.684;2023-03-24T15:00:39;14.56;-6.00
19340;HTU21D;9804;52.350;6.684;2023-03-24T15:05:40;14.28;-6.00
19340;HTU21D;9804;52.350;6.684;2023-03-24T15:08:22;14.25;-6.00
19340;HTU21D;9804;52.350;6.684;2023-03-24T15:11:00;13.98;-6.00
19340;HTU21D;9804;52.350;6.684;2023-03-24T15:15:53;14.28;-6.00
19340;HTU21D;9804;52.350;6.684;2023-03-24T15:18:19;14.22;-6.00
19340;HTU21D;9804;52.350;6.684;2023-03-24T15:20:47;14.40;-6.00
19340;HTU21D;9804;52.350;6.684;2023-03-24T15:23:17;14.18;-6.00
19340;HTU21D;9804;52.350;6.684;2023-03-24T15:25:43;14.53;-6.00
19340;HTU21D;9804;52.350;6.684;2023-03-24T15:28:19;14.55;-6.00
19340;HTU21D;9804;52.350;6.684;2023-03-24T15:30:49;14.55;-6.00
19340;HTU21D;9804;52.350;6.684;2023-03-24T15:33:15;15.00;-6.00
19340;HTU21D;9804;52.350;6.684;2023-03-24T15:35:43;14.77;-6.00
19340;HTU21D;9804;52.350;6.684;2023-03-24T15:38:19;15.33;-6.00
19340;HTU21D;9804;52.350;6.684;2023-03-24T15:41:04;15.00;-6.00
19340;HTU21D;9804;52.350;6.684;2023-03-24T15:43:31;14.82;-6.00
19340;HTU21D;9804;52.350;6.684;2023-03-24T15:45:57;14.83;-6.00
19340;HTU21D;9804;52.350;6.684;2023-03-24T15:48:32;15.22;-6.00
19340;HTU21D;9804;52.350;6.684;2023-03-24T15:51:01;14.97;-6.00
19340;HTU21D;9804;52.350;6.684;2023-03-24T15:53:35;14.91;-6.00
19340;HTU21D;9804;52.350;6.684;2023-03-24T16:01:29;15.03;-6.00
19340;HTU21D;9804;52.350;6.684;2023-03-24T16:04:12;14.85;-6.00
19340;HTU21D;9804;52.350;6.684;2023-03-24T16:06:41;14.91;-6.00
19340;HTU21D;9804;52.350;6.684;2023-03-24T16:09:12;15.06;-6.00
19340;HTU21D;9804;52.350;6.684;2023-03-24T16:11:39;15.14;-6.00
19340;HTU21D;9804;52.350;6.684;2023-03-24T16:14:21;15.09;-6.00
19340;HTU21D;9804;52.350;6.684;2023-03-24T16:16:47;15.13;-6.00
19340;HTU21D;9804;52.350;6.684;2023-03-24T16:19:12;15.27;-6.00
19340;HTU21D;9804;52.350;6.684;2023-03-24T16:21:38;15.32;-6.00
19340;HTU21D;9804;52.350;6.684;2023-03-24T16:24:03;15.21;-6.00
19340;HTU21D;9804;52.350;6.684;2023-03-24T16:26:31;15.37;-6.00
19340;HTU21D;9804;52.350;6.684;2023-03-24T16:29:02;15.31;-6.00
19340;HTU21D;9804;52.350;6.684;2023-03-24T16:31:30;15.59;-6.00
19340;HTU21D;9804;52.350;6.684;2023-03-24T16:33:57;15.53;-6.00
19340;HTU21D;9804;52.350;6.684;2023-03-24T16:36:24;15.66;-6.00
19340;HTU21D;9804;52.350;6.684;2023-03-24T16:38:55;15.62;-6.00
19340;HTU21D;9804;52.350;6.684;2023-03-24T16:41:21;15.42;-6.00
19340;HTU21D;9804;52.350;6.684;2023-03-24T16:43:47;15.53;-6.00
19340;HTU21D;9804;52.350;6.684;2023-03-24T16:46:19;15.61;-6.00
19340;HTU21D;9804;52.350;6.684;2023-03-24T16:48:45;15.71;-6.00
19340;HTU21D;9804;52.350;6.684;2023-03-24T16:51:13;15.98;-6.00
19340;HTU21D;9804;52.350;6.684;2023-03-24T16:53:39;15.88;-6.00
19340;HTU21D;9804;52.350;6.684;2023-03-24T16:56:05;15.82;-6.00
19340;HTU21D;9804;52.350;6.684;2023-03-24T16:58:30;15.30;-6.00
19340;HTU21D;9804;52.350;6.684;2023-03-24T17:00:56;15.12;-6.00
19340;HTU21D;9804;52.350;6.684;2023-03-24T17:03:23;14.91;-6.00
19340;HTU21D;9804;52.350;6.684;2023-03-24T17:05:49;14.84;-6.00
19340;HTU21D;9804;52.350;6.684;2023-03-24T17:08:17;14.71;-6.00
19340;HTU21D;9804;52.350;6.684;2023-03-24T17:10:45;14.84;-6.00
19340;HTU21D;9804;52.350;6.684;2023-03-24T17:13:20;14.97;-6.00
19340;HTU21D;9804;52.350;6.684;2023-03-24T17:15:46;15.23;-6.00
19340;HTU21D;9804;52.350;6.684;2023-03-24T17:18:12;15.23;-6.00
19340;HTU21D;9804;52.350;6.684;2023-03-24T17:20:37;14.82;-6.00
19340;HTU21D;9804;52.350;6.684;2023-03-24T17:23:07;14.98;-6.00
19340;HTU21D;9804;52.350;6.684;2023-03-24T17:25:33;14.72;-6.00
19340;HTU21D;9804;52.350;6.684;2023-03-24T17:27:58;14.84;-6.00
19340;HTU21D;9804;52.350;6.684;2023-03-24T17:30:25;14.78;-6.00
19340;HTU21D;9804;52.350;6.684;2023-03-24T17:32:51;14.63;-6.00
19340;HTU21D;9804;52.350;6.684;2023-03-24T17:35:20;14.20;-6.00
19340;HTU21D;9804;52.350;6.684;2023-03-24T17:37:46;14.43;-6.00
19340;HTU21D;9804;52.350;6.684;2023-03-24T17:40:14;14.53;-6.00
19340;HTU21D;9804;52.350;6.684;2023-03-24T17:42:42;14.27;-6.00
19340;HTU21D;9804;52.350;6.684;2023-03-24T17:45:09;14.36;-6.00
19340;HTU21D;9804;52.350;6.684;2023-03-24T17:47:36;14.28;-6.00
19340;HTU21D;9804;52.350;6.684;2023-03-24T17:50:02;14.33;-6.00
19340;HTU21D;9804;52.350;6.684;2023-03-24T17:52:42;14.21;-6.00
19340;HTU21D;9804;52.350;6.684;2023-03-24T17:55:10;14.29;-6.00
19340;HTU21D;9804;52.350;6.684;2023-03-24T17:57:36;13.99;-6.00